sensor_id;sensor_type;location;lat;lon;timestamp;temperature;humidity
5980;DHT22;3016;50.308;8.258;2023-07-13T00:02:39;15.60;1.00
5980;DHT22;3016;50.308;8.258;2023-07-13T00:05:40;15.50;1.00
5980;DHT22;3016;50.308;8.258;2023-07-13T00:08:41;15.40;1.00
5980;DHT22;3016;50.308;8.258;2023-07-13T00:11:43;15.30;1.00
5980;DHT22;3016;50.308;8.258;2023-07-13T00:14:44;15.30;1.00
5980;DHT22;3016;50.308;8.258;2023-07-13T00:17:45;15.40;1.00
5980;DHT22;3016;50.308;8.258;2023-07-13T00:20:45;15.20;1.00
5980;DHT22;3016;50.308;8.258;2023-07-13T00:23:46;15.20;1.00
5980;DHT22;3016;50.308;8.258;2023-07-13T00:26:49;15.10;1.00
5980;DHT22;3016;50.308;8.258;2023-07-13T00:29:50;15.20;1.00
5980;DHT22;3016;50.308;8.258;2023-07-13T00:32:50;15.20;1.00
5980;DHT22;3016;50.308;8.258;2023-07-13T00:35:51;15.20;1.00
5980;DHT22;3016;50.308;8.258;2023-07-13T00:38:52;15.10;1.00
5980;DHT22;3016;50.308;8.258;2023-07-13T00:41:53;15.00;1.00
5980;DHT22;3016;50.308;8.258;2023-07-13T00:45:02;14.90;1.00
5980;DHT22;3016;50.308;8.258;2023-07-13T00:48:05;14.70;1.00
5980;DHT22;3016;50.308;8.258;2023-07-13T00:51:06;14.60;1.00
5980;DHT22;3016;50.308;8.258;2023-07-13T00:54:15;14.50;1.00
5980;DHT22;3016;50.308;8.258;2023-07-13T00:57:20;14.40;1.00
5980;DHT22;3016;50.308;8.258;2023-07-13T01:00:22;14.40;1.00
5980;DHT22;3016;50.308;8.258;2023-07-13T01:03:23;14.40;1.00
5980;DHT22;3016;50.308;8.258;2023-07-13T01:06:24;14.40;1.00
5980;DHT22;3016;50.308;8.258;2023-07-13T01:09:26;14.50;1.00
5980;DHT22;3016;50.308;8.258;2023-07-13T01:12:26;14.30;1.00
5980;DHT22;3016;50.308;8.258;2023-07-13T01:15:43;14.20;1.00
5980;DHT22;3016;50.308;8.258;2023-07-13T01:18:45;14.20;1.00
5980;DHT22;3016;50.308;8.258;2023-07-13T01:21:50;14.10;1.00
5980;DHT22;3016;50.308;8.258;2023-07-13T01:24:53;14.00;1.00
5980;DHT22;3016;50.308;8.258;2023-07-13T01:27:54;13.80;1.00
5980;DHT22;3016;50.308;8.258;2023-07-13T01:30:57;13.70;1.00
5980;DHT22;3016;50.308;8.258;2023-07-13T01:33:58;13.70;1.00
5980;DHT22;3016;50.308;8.258;2023-07-13T01:36:59;13.70;1.00
5980;DHT22;3016;50.308;8.258;2023-07-13T01:39:59;13.60;1.00
5980;DHT22;3016;50.308;8.258;2023-07-13T01:43:00;13.60;1.00
5980;DHT22;3016;50.308;8.258;2023-07-13T01:46:01;13.60;1.00
5980;DHT22;3016;50.308;8.258;2023-07-13T01:49:02;13.70;1.00
5980;DHT22;3016;50.308;8.258;2023-07-13T01:52:03;13.70;1.00
5980;DHT22;3016;50.308;8.258;2023-07-13T01:55:04;13.70;1.00
5980;DHT22;3016;50.308;8.258;2023-07-13T01:58:05;13.70;1.00
5980;DHT22;3016;50.308;8.258;2023-07-13T02:01:07;13.70;1.00
5980;DHT22;3016;50.308;8.258;2023-07-13T02:04:07;13.40;1.00
5980;DHT22;3016;50.308;8.258;2023-07-13T02:07:09;13.30;1.00
5980;DHT22;3016;50.308;8.258;2023-07-13T02:10:10;13.20;1.00
5980;DHT22;3016;50.308;8.258;2023-07-13T02:13:11;13.20;1.00
5980;DHT22;3016;50.308;8.258;2023-07-13T02:16:12;13.20;1.00
5980;DHT22;3016;50.308;8.258;2023-07-13T02:19:13;13.10;1.00
5980;DHT22;3016;50.308;8.258;2023-07-13T02:22:14;13.00;1.00
5980;DHT22;3016;50.308;8.258;2023-07-13T02:25:14;13.10;1.00
5980;DHT22;3016;50.308;8.258;2023-07-13T02:28:15;13.10;1.00
5980;DHT22;3016;50.308;8.258;2023-07-13T02:31:16;13.00;1.00
5980;DHT22;3016;50.308;8.258;2023-07-13T02:34:17;13.00;1.00
5980;DHT22;3016;50.308;8.258;2023-07-13T02:37:18;12.90;1.00
5980;DHT22;3016;50.308;8.258;2023-07-13T02:40:18;12.80;1.00
5980;DHT22;3016;50.308;8.258;2023-07-13T02:43:19;12.80;1.00
5980;DHT22;3016;50.308;8.258;2023-07-13T02:46:20;12.70;1.00
5980;DHT22;3016;50.308;8.258;2023-07-13T02:49:20;12.70;1.00
5980;DHT22;3016;50.308;8.258;2023-07-13T02:52:21;12.60;1.00
5980;DHT22;3016;50.308;8.258;2023-07-13T02:55:22;12.50;1.00
5980;DHT22;3016;50.308;8.258;2023-07-13T02:58:23;12.50;1.00
5980;DHT22;3016;50.308;8.258;2023-07-13T03:01:24;12.50;1.00
5980;DHT22;3016;50.308;8.258;2023-07-13T03:04:25;12.60;1.00
5980;DHT22;3016;50.308;8.258;2023-07-13T03:07:26;12.40;1.00
5980;DHT22;3016;50.308;8.258;2023-07-13T03:10:26;12.20;1.00
5980;DHT22;3016;50.308;8.258;2023-07-13T03:13:27;11.90;1.00
5980;DHT22;3016;50.308;8.258;2023-07-13T03:16:28;11.90;1.00
5980;DHT22;3016;50.308;8.258;2023-07-13T03:19:29;11.90;1.00
5980;DHT22;3016;50.308;8.258;2023-07-13T03:22:30;12.00;1.00
5980;DHT22;3016;50.308;8.258;2023-07-13T03:25:31;12.00;1.00
5980;DHT22;3016;50.308;8.258;2023-07-13T03:28:32;12.00;1.00
5980;DHT22;3016;50.308;8.258;2023-07-13T03:31:35;11.90;1.00
5980;DHT22;3016;50.308;8.258;2023-07-13T03:34:36;11.80;1.00
5980;DHT22;3016;50.308;8.258;2023-07-13T03:37:37;11.70;1.00
5980;DHT22;3016;50.308;8.258;2023-07-13T03:40:42;11.70;1.00
5980;DHT22;3016;50.308;8.258;2023-07-13T03:43:43;11.80;1.00
5980;DHT22;3016;50.308;8.258;2023-07-13T03:46:44;11.80;1.00
5980;DHT22;3016;50.308;8.258;2023-07-13T03:49:45;11.80;1.00
5980;DHT22;3016;50.308;8.258;2023-07-13T03:52:46;11.80;1.00
5980;DHT22;3016;50.308;8.258;2023-07-13T03:55:47;11.70;1.00
5980;DHT22;3016;50.308;8.258;2023-07-13T03:58:49;11.80;1.00
5980;DHT22;3016;50.308;8.258;2023-07-13T04:01:50;11.80;1.00
5980;DHT22;3016;50.308;8.258;2023-07-13T04:04:51;11.70;1.00
5980;DHT22;3016;50.308;8.258;2023-07-13T04:07:53;11.70;1.00
5980;DHT22;3016;50.308;8.258;2023-07-13T04:10:53;11.60;1.00
5980;DHT22;3016;50.308;8.258;2023-07-13T04:13:55;11.70;1.00
5980;DHT22;3016;50.308;8.258;2023-07-13T04:16:56;11.80;1.00
5980;DHT22;3016;50.308;8.258;2023-07-13T04:19:56;11.80;1.00
5980;DHT22;3016;50.308;8.258;2023-07-13T04:22:57;11.90;1.00
5980;DHT22;3016;50.308;8.258;2023-07-13T04:25:58;11.80;1.00
5980;DHT22;3016;50.308;8.258;2023-07-13T04:28:59;11.70;1.00
5980;DHT22;3016;50.308;8.258;2023-07-13T04:31:59;11.70;1.00
5980;DHT22;3016;50.308;8.258;2023-07-13T04:35:00;11.50;1.00
5980;DHT22;3016;50.308;8.258;2023-07-13T04:38:01;11.50;1.00
5980;DHT22;3016;50.308;8.258;2023-07-13T04:41:05;11.70;1.00
5980;DHT22;3016;50.308;8.258;2023-07-13T04:44:06;11.90;1.00
5980;DHT22;3016;50.308;8.258;2023-07-13T04:47:07;12.00;1.00
5980;DHT22;3016;50.308;8.258;2023-07-13T04:50:08;12.10;1.00
5980;DHT22;3016;50.308;8.258;2023-07-13T04:53:11;12.20;1.00
5980;DHT22;3016;50.308;8.258;2023-07-13T04:56:12;12.20;1.00
5980;DHT22;3016;50.308;8.258;2023-07-13T04:59:12;12.20;1.00
5980;DHT22;3016;50.308;8.258;2023-07-13T05:02:13;12.40;1.00
5980;DHT22;3016;50.308;8.258;2023-07-13T05:05:14;12.50;1.00
5980;DHT22;3016;50.308;8.258;2023-07-13T05:08:14;12.60;1.00
5980;DHT22;3016;50.308;8.258;2023-07-13T05:11:15;12.70;1.00
5980;DHT22;3016;50.308;8.258;2023-07-13T05:14:16;12.80;1.00
5980;DHT22;3016;50.308;8.258;2023-07-13T05:17:16;12.80;1.00
5980;DHT22;3016;50.308;8.258;2023-07-13T05:20:18;12.90;1.00
5980;DHT22;3016;50.308;8.258;2023-07-13T05:23:19;13.10;1.00
5980;DHT22;3016;50.308;8.258;2023-07-13T05:26:20;13.40;1.00
5980;DHT22;3016;50.308;8.258;2023-07-13T05:29:21;13.70;1.00
5980;DHT22;3016;50.308;8.258;2023-07-13T05:32:22;13.90;1.00
5980;DHT22;3016;50.308;8.258;2023-07-13T05:35:23;14.10;1.00
5980;DHT22;3016;50.308;8.258;2023-07-13T05:38:24;14.40;1.00
5980;DHT22;3016;50.308;8.258;2023-07-13T05:41:24;14.70;1.00
5980;DHT22;3016;50.308;8.258;2023-07-13T05:44:25;15.00;1.00
5980;DHT22;3016;50.308;8.258;2023-07-13T05:47:26;15.20;1.00
5980;DHT22;3016;50.308;8.258;2023-07-13T05:50:26;15.60;1.00
5980;DHT22;3016;50.308;8.258;2023-07-13T05:53:27;15.80;1.00
5980;DHT22;3016;50.308;8.258;2023-07-13T05:56:28;16.00;1.00
5980;DHT22;3016;50.308;8.258;2023-07-13T05:59:28;16.40;1.00
5980;DHT22;3016;50.308;8.258;2023-07-13T06:02:29;16.70;1.00
5980;DHT22;3016;50.308;8.258;2023-07-13T06:05:30;17.00;1.00
5980;DHT22;3016;50.308;8.258;2023-07-13T06:08:32;17.40;1.00
5980;DHT22;3016;50.308;8.258;2023-07-13T06:11:33;17.90;1.00
5980;DHT22;3016;50.308;8.258;2023-07-13T06:14:35;18.30;1.00
5980;DHT22;3016;50.308;8.258;2023-07-13T06:17:36;18.40;1.00
5980;DHT22;3016;50.308;8.258;2023-07-13T06:20:36;18.70;1.00
5980;DHT22;3016;50.308;8.258;2023-07-13T06:23:37;19.00;1.00
5980;DHT22;3016;50.308;8.258;2023-07-13T06:26:38;19.10;1.00
5980;DHT22;3016;50.308;8.258;2023-07-13T06:29:39;19.30;1.00
5980;DHT22;3016;50.308;8.258;2023-07-13T06:32:40;19.70;1.00
5980;DHT22;3016;50.308;8.258;2023-07-13T06:35:41;20.00;1.00
5980;DHT22;3016;50.308;8.258;2023-07-13T06:38:42;20.10;1.00
5980;DHT22;3016;50.308;8.258;2023-07-13T06:41:42;20.10;1.00
5980;DHT22;3016;50.308;8.258;2023-07-13T06:44:43;19.80;1.00
5980;DHT22;3016;50.308;8.258;2023-07-13T06:47:44;19.60;1.00
5980;DHT22;3016;50.308;8.258;2023-07-13T06:50:46;19.70;1.00
5980;DHT22;3016;50.308;8.258;2023-07-13T06:53:48;19.90;1.00
5980;DHT22;3016;50.308;8.258;2023-07-13T06:56:50;19.60;1.00
5980;DHT22;3016;50.308;8.258;2023-07-13T06:59:50;19.70;1.00
5980;DHT22;3016;50.308;8.258;2023-07-13T07:02:51;19.90;1.00
5980;DHT22;3016;50.308;8.258;2023-07-13T07:05:52;20.20;1.00
5980;DHT22;3016;50.308;8.258;2023-07-13T07:08:53;20.10;1.00
5980;DHT22;3016;50.308;8.258;2023-07-13T07:11:54;20.00;1.00
5980;DHT22;3016;50.308;8.258;2023-07-13T07:14:55;20.00;1.00
5980;DHT22;3016;50.308;8.258;2023-07-13T07:17:55;19.90;1.00
5980;DHT22;3016;50.308;8.258;2023-07-13T07:20:56;20.30;1.00
5980;DHT22;3016;50.308;8.258;2023-07-13T07:23:57;20.60;1.00
5980;DHT22;3016;50.308;8.258;2023-07-13T07:26:57;20.70;1.00
5980;DHT22;3016;50.308;8.258;2023-07-13T07:29:59;20.30;1.00
5980;DHT22;3016;50.308;8.258;2023-07-13T07:33:00;20.10;1.00
5980;DHT22;3016;50.308;8.258;2023-07-13T07:36:01;20.00;1.00
5980;DHT22;3016;50.308;8.258;2023-07-13T07:39:02;20.10;1.00
5980;DHT22;3016;50.308;8.258;2023-07-13T07:42:03;20.10;1.00
5980;DHT22;3016;50.308;8.258;2023-07-13T07:45:04;20.00;1.00
5980;DHT22;3016;50.308;8.258;2023-07-13T07:48:06;19.90;1.00
5980;DHT22;3016;50.308;8.258;2023-07-13T07:51:07;19.80;1.00
5980;DHT22;3016;50.308;8.258;2023-07-13T07:54:07;19.90;1.00
5980;DHT22;3016;50.308;8.258;2023-07-13T07:57:08;19.80;1.00
5980;DHT22;3016;50.308;8.258;2023-07-13T08:00:10;19.80;1.00
5980;DHT22;3016;50.308;8.258;2023-07-13T08:03:11;19.90;1.00
5980;DHT22;3016;50.308;8.258;2023-07-13T08:06:12;19.90;1.00
5980;DHT22;3016;50.308;8.258;2023-07-13T08:09:13;19.90;1.00
5980;DHT22;3016;50.308;8.258;2023-07-13T08:12:14;20.10;1.00
5980;DHT22;3016;50.308;8.258;2023-07-13T08:15:18;20.00;1.00
5980;DHT22;3016;50.308;8.258;2023-07-13T08:18:20;20.10;1.00
5980;DHT22;3016;50.308;8.258;2023-07-13T08:21:21;20.10;1.00
5980;DHT22;3016;50.308;8.258;2023-07-13T08:24:23;20.20;1.00
5980;DHT22;3016;50.308;8.258;2023-07-13T08:27:25;20.20;1.00
5980;DHT22;3016;50.308;8.258;2023-07-13T08:30:27;20.00;1.00
5980;DHT22;3016;50.308;8.258;2023-07-13T08:33:27;20.00;1.00
5980;DHT22;3016;50.308;8.258;2023-07-13T08:36:29;20.30;1.00
5980;DHT22;3016;50.308;8.258;2023-07-13T08:39:30;20.70;1.00
5980;DHT22;3016;50.308;8.258;2023-07-13T08:42:41;21.10;1.00
5980;DHT22;3016;50.308;8.258;2023-07-13T08:45:49;21.50;1.00
5980;DHT22;3016;50.308;8.258;2023-07-13T08:48:56;21.90;1.00
5980;DHT22;3016;50.308;8.258;2023-07-13T08:52:29;22.10;1.00
5980;DHT22;3016;50.308;8.258;2023-07-13T08:55:37;22.30;1.00
5980;DHT22;3016;50.308;8.258;2023-07-13T08:58:40;21.90;1.00
5980;DHT22;3016;50.308;8.258;2023-07-13T09:12:08;21.90;1.00
5980;DHT22;3016;50.308;8.258;2023-07-13T09:15:34;22.00;1.00
5980;DHT22;3016;50.308;8.258;2023-07-13T09:18:43;21.90;1.00
5980;DHT22;3016;50.308;8.258;2023-07-13T09:21:47;22.10;1.00
5980;DHT22;3016;50.308;8.258;2023-07-13T09:24:55;22.30;1.00
5980;DHT22;3016;50.308;8.258;2023-07-13T09:28:13;22.20;1.00
5980;DHT22;3016;50.308;8.258;2023-07-13T09:31:23;22.50;1.00
5980;DHT22;3016;50.308;8.258;2023-07-13T09:34:28;22.70;1.00
5980;DHT22;3016;50.308;8.258;2023-07-13T09:37:31;22.90;1.00
5980;DHT22;3016;50.308;8.258;2023-07-13T09:40:42;22.80;1.00
5980;DHT22;3016;50.308;8.258;2023-07-13T09:47:39;22.60;1.00
5980;DHT22;3016;50.308;8.258;2023-07-13T09:50:41;22.70;1.00
5980;DHT22;3016;50.308;8.258;2023-07-13T09:53:42;22.70;1.00
5980;DHT22;3016;50.308;8.258;2023-07-13T09:56:43;22.60;1.00
5980;DHT22;3016;50.308;8.258;2023-07-13T09:59:50;22.50;1.00
5980;DHT22;3016;50.308;8.258;2023-07-13T10:06:21;22.50;1.00
5980;DHT22;3016;50.308;8.258;2023-07-13T10:09:22;22.50;1.00
5980;DHT22;3016;50.308;8.258;2023-07-13T10:12:24;22.60;1.00
5980;DHT22;3016;50.308;8.258;2023-07-13T10:15:25;22.70;1.00
5980;DHT22;3016;50.308;8.258;2023-07-13T10:18:28;22.80;1.00
5980;DHT22;3016;50.308;8.258;2023-07-13T10:21:38;23.10;1.00
5980;DHT22;3016;50.308;8.258;2023-07-13T10:24:40;23.10;1.00
5980;DHT22;3016;50.308;8.258;2023-07-13T10:27:41;23.10;1.00
5980;DHT22;3016;50.308;8.258;2023-07-13T10:30:46;23.20;1.00
5980;DHT22;3016;50.308;8.258;2023-07-13T10:33:48;23.30;1.00
5980;DHT22;3016;50.308;8.258;2023-07-13T10:36:51;23.50;1.00
5980;DHT22;3016;50.308;8.258;2023-07-13T10:39:54;23.70;1.00
5980;DHT22;3016;50.308;8.258;2023-07-13T10:42:57;23.70;1.00
5980;DHT22;3016;50.308;8.258;2023-07-13T10:46:00;23.40;1.00
5980;DHT22;3016;50.308;8.258;2023-07-13T10:49:05;23.50;1.00
5980;DHT22;3016;50.308;8.258;2023-07-13T10:52:20;23.60;1.00
5980;DHT22;3016;50.308;8.258;2023-07-13T11:02:15;24.00;1.00
5980;DHT22;3016;50.308;8.258;2023-07-13T11:05:29;24.10;1.00
5980;DHT22;3016;50.308;8.258;2023-07-13T11:11:46;25.00;1.00
5980;DHT22;3016;50.308;8.258;2023-07-13T11:17:54;24.70;1.00
5980;DHT22;3016;50.308;8.258;2023-07-13T11:21:16;24.60;1.00
5980;DHT22;3016;50.308;8.258;2023-07-13T11:24:19;24.70;1.00
5980;DHT22;3016;50.308;8.258;2023-07-13T11:30:37;24.90;1.00
5980;DHT22;3016;50.308;8.258;2023-07-13T11:36:44;24.00;1.00
5980;DHT22;3016;50.308;8.258;2023-07-13T11:39:46;23.80;1.00
5980;DHT22;3016;50.308;8.258;2023-07-13T11:42:49;23.60;1.00
5980;DHT22;3016;50.308;8.258;2023-07-13T11:45:50;23.40;1.00
5980;DHT22;3016;50.308;8.258;2023-07-13T11:48:52;23.30;1.00
5980;DHT22;3016;50.308;8.258;2023-07-13T11:51:53;23.40;1.00
5980;DHT22;3016;50.308;8.258;2023-07-13T11:54:56;23.20;1.00
5980;DHT22;3016;50.308;8.258;2023-07-13T11:57:59;23.10;1.00
5980;DHT22;3016;50.308;8.258;2023-07-13T12:01:02;23.00;1.00
5980;DHT22;3016;50.308;8.258;2023-07-13T12:04:24;23.00;1.00
5980;DHT22;3016;50.308;8.258;2023-07-13T12:07:32;23.00;1.00
5980;DHT22;3016;50.308;8.258;2023-07-13T12:10:33;22.90;1.00
5980;DHT22;3016;50.308;8.258;2023-07-13T12:13:37;22.90;1.00
5980;DHT22;3016;50.308;8.258;2023-07-13T12:16:42;22.80;1.00
5980;DHT22;3016;50.308;8.258;2023-07-13T12:19:43;22.80;1.00
5980;DHT22;3016;50.308;8.258;2023-07-13T12:22:47;22.80;1.00
5980;DHT22;3016;50.308;8.258;2023-07-13T12:25:49;22.80;1.00
5980;DHT22;3016;50.308;8.258;2023-07-13T12:28:54;22.80;1.00
5980;DHT22;3016;50.308;8.258;2023-07-13T12:31:57;22.80;1.00
5980;DHT22;3016;50.308;8.258;2023-07-13T12:35:15;22.70;1.00
5980;DHT22;3016;50.308;8.258;2023-07-13T12:38:19;22.80;1.00
5980;DHT22;3016;50.308;8.258;2023-07-13T12:41:25;22.90;1.00
5980;DHT22;3016;50.308;8.258;2023-07-13T12:44:29;23.10;1.00
5980;DHT22;3016;50.308;8.258;2023-07-13T12:47:48;23.20;1.00
5980;DHT22;3016;50.308;8.258;2023-07-13T12:50:50;23.20;1.00
5980;DHT22;3016;50.308;8.258;2023-07-13T12:54:18;23.10;1.00
5980;DHT22;3016;50.308;8.258;2023-07-13T12:57:19;23.00;1.00
5980;DHT22;3016;50.308;8.258;2023-07-13T13:00:30;22.90;1.00
5980;DHT22;3016;50.308;8.258;2023-07-13T13:03:37;22.80;1.00
5980;DHT22;3016;50.308;8.258;2023-07-13T13:06:45;22.80;1.00
5980;DHT22;3016;50.308;8.258;2023-07-13T13:09:48;22.80;1.00
5980;DHT22;3016;50.308;8.258;2023-07-13T13:12:49;22.80;1.00
5980;DHT22;3016;50.308;8.258;2023-07-13T13:15:52;22.80;1.00
5980;DHT22;3016;50.308;8.258;2023-07-13T13:18:59;22.80;1.00
5980;DHT22;3016;50.308;8.258;2023-07-13T13:22:02;22.80;1.00
5980;DHT22;3016;50.308;8.258;2023-07-13T13:25:03;22.70;1.00
5980;DHT22;3016;50.308;8.258;2023-07-13T13:28:05;22.70;1.00
5980;DHT22;3016;50.308;8.258;2023-07-13T13:31:14;22.60;1.00
5980;DHT22;3016;50.308;8.258;2023-07-13T13:34:17;22.60;1.00
5980;DHT22;3016;50.308;8.258;2023-07-13T13:37:23;22.60;1.00
5980;DHT22;3016;50.308;8.258;2023-07-13T13:40:26;22.50;1.00
5980;DHT22;3016;50.308;8.258;2023-07-13T13:43:27;22.50;1.00
5980;DHT22;3016;50.308;8.258;2023-07-13T13:46:28;22.50;1.00
5980;DHT22;3016;50.308;8.258;2023-07-13T13:49:30;22.60;1.00
5980;DHT22;3016;50.308;8.258;2023-07-13T13:52:31;22.60;1.00
5980;DHT22;3016;50.308;8.258;2023-07-13T13:55:32;22.50;1.00
5980;DHT22;3016;50.308;8.258;2023-07-13T13:58:33;22.50;1.00
5980;DHT22;3016;50.308;8.258;2023-07-13T14:01:33;22.60;1.00
5980;DHT22;3016;50.308;8.258;2023-07-13T14:04:34;22.60;1.00
5980;DHT22;3016;50.308;8.258;2023-07-13T14:07:35;22.70;1.00
5980;DHT22;3016;50.308;8.258;2023-07-13T14:10:36;22.70;1.00
5980;DHT22;3016;50.308;8.258;2023-07-13T14:13:40;22.60;1.00
5980;DHT22;3016;50.308;8.258;2023-07-13T14:16:44;22.60;1.00
5980;DHT22;3016;50.308;8.258;2023-07-13T14:19:47;22.60;1.00
5980;DHT22;3016;50.308;8.258;2023-07-13T14:22:54;22.60;1.00
5980;DHT22;3016;50.308;8.258;2023-07-13T14:26:01;22.60;1.00
5980;DHT22;3016;50.308;8.258;2023-07-13T14:29:02;22.60;1.00
5980;DHT22;3016;50.308;8.258;2023-07-13T14:32:10;22.60;1.00
5980;DHT22;3016;50.308;8.258;2023-07-13T14:35:13;22.70;1.00
5980;DHT22;3016;50.308;8.258;2023-07-13T14:38:19;22.80;1.00
5980;DHT22;3016;50.308;8.258;2023-07-13T14:41:20;22.90;1.00
5980;DHT22;3016;50.308;8.258;2023-07-13T14:44:29;22.90;1.00
5980;DHT22;3016;50.308;8.258;2023-07-13T14:47:31;23.00;1.00
5980;DHT22;3016;50.308;8.258;2023-07-13T14:50:32;23.10;1.00
5980;DHT22;3016;50.308;8.258;2023-07-13T14:53:35;23.00;1.00
5980;DHT22;3016;50.308;8.258;2023-07-13T14:56:40;22.90;1.00
5980;DHT22;3016;50.308;8.258;2023-07-13T14:59:41;22.90;1.00
5980;DHT22;3016;50.308;8.258;2023-07-13T15:02:52;22.90;1.00
5980;DHT22;3016;50.308;8.258;2023-07-13T15:05:55;22.90;1.00
5980;DHT22;3016;50.308;8.258;2023-07-13T15:08:55;23.00;1.00
5980;DHT22;3016;50.308;8.258;2023-07-13T15:11:57;22.80;1.00
5980;DHT22;3016;50.308;8.258;2023-07-13T15:14:58;22.80;1.00
5980;DHT22;3016;50.308;8.258;2023-07-13T15:17:59;22.80;1.00
5980;DHT22;3016;50.308;8.258;2023-07-13T15:21:01;22.70;1.00
5980;DHT22;3016;50.308;8.258;2023-07-13T15:24:04;22.70;1.00
5980;DHT22;3016;50.308;8.258;2023-07-13T15:27:11;22.80;1.00
5980;DHT22;3016;50.308;8.258;2023-07-13T15:30:14;22.80;1.00
5980;DHT22;3016;50.308;8.258;2023-07-13T15:33:28;22.80;1.00
5980;DHT22;3016;50.308;8.258;2023-07-13T15:36:30;22.90;1.00
5980;DHT22;3016;50.308;8.258;2023-07-13T15:39:30;23.00;1.00
5980;DHT22;3016;50.308;8.258;2023-07-13T15:42:31;23.10;1.00
5980;DHT22;3016;50.308;8.258;2023-07-13T15:45:32;23.20;1.00
5980;DHT22;3016;50.308;8.258;2023-07-13T15:48:33;23.20;1.00
5980;DHT22;3016;50.308;8.258;2023-07-13T15:51:40;23.10;1.00
5980;DHT22;3016;50.308;8.258;2023-07-13T15:54:40;23.20;1.00
5980;DHT22;3016;50.308;8.258;2023-07-13T15:57:45;23.10;1.00
5980;DHT22;3016;50.308;8.258;2023-07-13T16:00:48;23.10;1.00
5980;DHT22;3016;50.308;8.258;2023-07-13T16:03:53;23.10;1.00
5980;DHT22;3016;50.308;8.258;2023-07-13T16:06:54;23.10;1.00
5980;DHT22;3016;50.308;8.258;2023-07-13T16:09:54;23.20;1.00
5980;DHT22;3016;50.308;8.258;2023-07-13T16:12:55;23.30;1.00
5980;DHT22;3016;50.308;8.258;2023-07-13T16:15:57;23.40;1.00
5980;DHT22;3016;50.308;8.258;2023-07-13T16:19:01;23.70;1.00
5980;DHT22;3016;50.308;8.258;2023-07-13T16:22:03;23.60;1.00
5980;DHT22;3016;50.308;8.258;2023-07-13T16:25:34;23.70;1.00
5980;DHT22;3016;50.308;8.258;2023-07-13T16:28:35;24.00;1.00
5980;DHT22;3016;50.308;8.258;2023-07-13T16:31:36;24.20;1.00
5980;DHT22;3016;50.308;8.258;2023-07-13T16:34:38;24.10;1.00
5980;DHT22;3016;50.308;8.258;2023-07-13T16:37:42;23.90;1.00
5980;DHT22;3016;50.308;8.258;2023-07-13T16:40:42;23.80;1.00
5980;DHT22;3016;50.308;8.258;2023-07-13T16:43:43;23.90;1.00
5980;DHT22;3016;50.308;8.258;2023-07-13T16:46:50;23.90;1.00
5980;DHT22;3016;50.308;8.258;2023-07-13T16:49:56;23.70;1.00
5980;DHT22;3016;50.308;8.258;2023-07-13T16:52:59;23.50;1.00
5980;DHT22;3016;50.308;8.258;2023-07-13T16:56:03;23.40;1.00
5980;DHT22;3016;50.308;8.258;2023-07-13T16:59:18;23.40;1.00
5980;DHT22;3016;50.308;8.258;2023-07-13T17:02:36;23.70;1.00
5980;DHT22;3016;50.308;8.258;2023-07-13T17:05:41;23.80;1.00
5980;DHT22;3016;50.308;8.258;2023-07-13T17:08:46;23.90;1.00
5980;DHT22;3016;50.308;8.258;2023-07-13T17:11:46;24.00;1.00
5980;DHT22;3016;50.308;8.258;2023-07-13T17:14:47;24.20;1.00
5980;DHT22;3016;50.308;8.258;2023-07-13T17:17:49;24.20;1.00
5980;DHT22;3016;50.308;8.258;2023-07-13T17:20:51;24.30;1.00
5980;DHT22;3016;50.308;8.258;2023-07-13T17:23:53;24.50;1.00
5980;DHT22;3016;50.308;8.258;2023-07-13T17:26:54;24.50;1.00
5980;DHT22;3016;50.308;8.258;2023-07-13T17:29:57;24.30;1.00
5980;DHT22;3016;50.308;8.258;2023-07-13T17:32:58;24.20;1.00
5980;DHT22;3016;50.308;8.258;2023-07-13T17:36:05;24.20;1.00
5980;DHT22;3016;50.308;8.258;2023-07-13T17:39:19;24.10;1.00
5980;DHT22;3016;50.308;8.258;2023-07-13T17:42:20;24.00;1.00
5980;DHT22;3016;50.308;8.258;2023-07-13T17:45:26;23.90;1.00
5980;DHT22;3016;50.308;8.258;2023-07-13T17:48:29;23.90;1.00
5980;DHT22;3016;50.308;8.258;2023-07-13T17:51:29;23.90;1.00
5980;DHT22;3016;50.308;8.258;2023-07-13T17:54:31;23.90;1.00
5980;DHT22;3016;50.308;8.258;2023-07-13T17:57:33;23.70;1.00
5980;DHT22;3016;50.308;8.258;2023-07-13T18:00:36;23.40;1.00
5980;DHT22;3016;50.308;8.258;2023-07-13T18:03:41;23.20;1.00
5980;DHT22;3016;50.308;8.258;2023-07-13T18:06:46;23.00;1.00
5980;DHT22;3016;50.308;8.258;2023-07-13T18:10:15;22.90;1.00
5980;DHT22;3016;50.308;8.258;2023-07-13T18:13:17;22.70;1.00
5980;DHT22;3016;50.308;8.258;2023-07-13T18:16:27;22.70;1.00
5980;DHT22;3016;50.308;8.258;2023-07-13T18:19:35;22.80;1.00
5980;DHT22;3016;50.308;8.258;2023-07-13T18:22:38;22.80;1.00
5980;DHT22;3016;50.308;8.258;2023-07-13T18:25:39;22.90;1.00
5980;DHT22;3016;50.308;8.258;2023-07-13T18:28:42;22.90;1.00
5980;DHT22;3016;50.308;8.258;2023-07-13T18:31:43;22.80;1.00
5980;DHT22;3016;50.308;8.258;2023-07-13T18:34:44;22.80;1.00
5980;DHT22;3016;50.308;8.258;2023-07-13T18:37:45;22.70;1.00
5980;DHT22;3016;50.308;8.258;2023-07-13T18:40:49;22.60;1.00
5980;DHT22;3016;50.308;8.258;2023-07-13T18:43:50;22.50;1.00
5980;DHT22;3016;50.308;8.258;2023-07-13T18:46:52;22.40;1.00
5980;DHT22;3016;50.308;8.258;2023-07-13T18:49:53;22.30;1.00
5980;DHT22;3016;50.308;8.258;2023-07-13T18:52:56;22.20;1.00
5980;DHT22;3016;50.308;8.258;2023-07-13T18:55:57;22.10;1.00
5980;DHT22;3016;50.308;8.258;2023-07-13T18:58:58;22.00;1.00
5980;DHT22;3016;50.308;8.258;2023-07-13T19:01:58;21.90;1.00
5980;DHT22;3016;50.308;8.258;2023-07-13T19:04:59;21.80;1.00
5980;DHT22;3016;50.308;8.258;2023-07-13T19:08:01;21.70;1.00
5980;DHT22;3016;50.308;8.258;2023-07-13T19:11:13;21.60;1.00
5980;DHT22;3016;50.308;8.258;2023-07-13T19:14:19;21.50;1.00
5980;DHT22;3016;50.308;8.258;2023-07-13T19:17:23;21.30;1.00
5980;DHT22;3016;50.308;8.258;2023-07-13T19:20:35;21.10;1.00
5980;DHT22;3016;50.308;8.258;2023-07-13T19:23:42;21.00;1.00
5980;DHT22;3016;50.308;8.258;2023-07-13T19:26:45;20.90;1.00
5980;DHT22;3016;50.308;8.258;2023-07-13T19:29:51;20.80;1.00
5980;DHT22;3016;50.308;8.258;2023-07-13T19:32:52;20.70;1.00
5980;DHT22;3016;50.308;8.258;2023-07-13T19:35:53;20.50;1.00
5980;DHT22;3016;50.308;8.258;2023-07-13T19:38:54;20.20;1.00
5980;DHT22;3016;50.308;8.258;2023-07-13T19:41:56;20.10;1.00
5980;DHT22;3016;50.308;8.258;2023-07-13T19:44:58;20.00;1.00
5980;DHT22;3016;50.308;8.258;2023-07-13T19:47:59;19.90;1.00
5980;DHT22;3016;50.308;8.258;2023-07-13T19:51:00;19.80;1.00
5980;DHT22;3016;50.308;8.258;2023-07-13T19:54:15;19.60;1.00
5980;DHT22;3016;50.308;8.258;2023-07-13T19:57:19;19.30;1.00
5980;DHT22;3016;50.308;8.258;2023-07-13T20:00:27;19.10;1.00
5980;DHT22;3016;50.308;8.258;2023-07-13T20:03:28;19.20;1.00
5980;DHT22;3016;50.308;8.258;2023-07-13T20:06:32;19.10;1.00
5980;DHT22;3016;50.308;8.258;2023-07-13T20:09:33;19.00;1.00
5980;DHT22;3016;50.308;8.258;2023-07-13T20:12:35;18.90;1.00
5980;DHT22;3016;50.308;8.258;2023-07-13T20:15:37;18.90;1.00
5980;DHT22;3016;50.308;8.258;2023-07-13T20:18:38;18.80;1.00
5980;DHT22;3016;50.308;8.258;2023-07-13T20:21:38;18.40;1.00
5980;DHT22;3016;50.308;8.258;2023-07-13T20:24:39;18.40;1.00
5980;DHT22;3016;50.308;8.258;2023-07-13T20:27:40;18.40;1.00
5980;DHT22;3016;50.308;8.258;2023-07-13T20:30:45;18.50;1.00
5980;DHT22;3016;50.308;8.258;2023-07-13T20:33:47;18.60;1.00
5980;DHT22;3016;50.308;8.258;2023-07-13T20:36:49;18.50;1.00
5980;DHT22;3016;50.308;8.258;2023-07-13T20:39:51;18.30;1.00
5980;DHT22;3016;50.308;8.258;2023-07-13T20:42:52;18.30;1.00
5980;DHT22;3016;50.308;8.258;2023-07-13T20:45:59;18.30;1.00
5980;DHT22;3016;50.308;8.258;2023-07-13T20:49:01;18.10;1.00
5980;DHT22;3016;50.308;8.258;2023-07-13T20:52:09;18.00;1.00